الصفحة الرئيسية
METAR-TAF:

METAR-TAF

مطار :

كوكشيتو, كازاخستان

دائرة عرض: 53-19-48N, خط طول: 069-35-48E, ارتفاع: 270 متر

مراقبة الطقس الحالي

تاريخ ووقت الإصدار 47 دقيقة قبل الساعة 11:00UTC
ريح 21 عقدة من الغرب
درجة الحرارة 25°درجة مئوية
الرطوبة 30%
ضغط 1012 hPa
الرؤية 10 كم أو أكثر
الغيوم لا تقل 1500 م ولا وجود لمزنة ركامية السحاب الأسود

METAR: UACK 241100Z 28011MPS CAVOK 25/06 Q1012 R20/010070 NOSIG RMK QFE735/0980

زمن: 17:47 (11:47 UTC)

توقعات

تاريخ ووقت الإصدار 3ساعات و 47 دقيقة قبل الساعة 08:00UTC
التوقعات صالحة من24 الساعة 09 UTC إلى 24 الساعة 18 UTC
ريح 19 عقدة من الجنوب الغربي تتزايد حتى 29 عقدة
الرؤية 10 كم أو أكثر
غيوم متفرقة على ارتفاع 3300 قدم, مزنة ركامية.
غيوم مفككة على ارتفاع 10000 قدم
مؤقت
من 24 الساعة 09 UTC إلى 24 الساعة 16 UTC
ريح 27 عقدة من الغرب تتزايد حتى 37 عقدة
الرؤية: 4000 متر
غيوم مفككة على ارتفاع 1500 قدم, مزنة ركامية.
عاصفة رعدية, مطر خفيف

TAF: UACK 240800Z 2409/2418 23010G15MPS 9999 SCT033CB BKN100 TEMPO 2409/2416 27014G19MPS 4000 -TSRA BKN015CB

أرصاد الطقس والتوقعات من أكثر من 4000 مطار (تقارير الطقس للمطار METAR والتنبؤ بالطقس بالمطارTAF).

المحطات المتاحة هي النقط الصفراء والحمراء على الخريطة.

حرك المؤشر فوق النقطة لمعرفة اسم المحطة.

ثم انقر لمعرفة أرصاد وتوقعات الطقس.

لتغيير الخارطة: اضغط على الأزرار الخضراء مع رمز الصليب الأسود للتكبير. على الزر الأخضر مع شرطة للتصغير، أو على الأسهم الخضراء للخرائط المجاورة.


METAR-TAF: